createdAt,value
2018-10-18T00:00:12.714Z,67.17
2018-10-18T00:02:41.379Z,65.07
2018-10-18T00:05:10.326Z,64.27
2018-10-18T00:07:39.018Z,64.10
2018-10-18T00:10:08.358Z,58.97
2018-10-18T00:12:37.108Z,61.77
2018-10-18T00:15:06.562Z,61.17
2018-10-18T00:17:40.230Z,63.20
2018-10-18T00:20:09.064Z,62.87
2018-10-18T00:22:37.630Z,59.63
2018-10-18T00:25:06.470Z,65.00
2018-10-18T00:27:35.211Z,64.40
2018-10-18T00:30:03.936Z,64.20
2018-10-18T00:32:32.550Z,62.70
2018-10-18T00:35:01.161Z,62.83
2018-10-18T00:37:29.763Z,62.73
2018-10-18T00:39:58.394Z,63.40
2018-10-18T00:42:26.966Z,65.63
2018-10-18T00:44:55.603Z,62.50
2018-10-18T00:47:24.220Z,63.53
2018-10-18T00:49:52.839Z,63.10
2018-10-18T00:52:21.490Z,62.20
2018-10-18T00:54:50.069Z,63.07
2018-10-18T00:57:18.682Z,63.93
2018-10-18T00:59:47.265Z,64.33
2018-10-18T01:02:15.963Z,63.43
2018-10-18T01:04:44.490Z,64.73
2018-10-18T01:07:13.338Z,63.43
2018-10-18T01:09:41.963Z,64.53
2018-10-18T01:12:10.666Z,64.30
2018-10-18T01:14:44.482Z,63.60
2018-10-18T01:17:13.083Z,60.97
2018-10-18T01:19:41.717Z,61.30
2018-10-18T01:22:10.389Z,61.50
2018-10-18T01:24:39.012Z,62.97
2018-10-18T01:27:07.933Z,59.83
2018-10-18T01:29:36.514Z,62.27
2018-10-18T01:32:05.713Z,59.20
2018-10-18T01:34:34.341Z,61.23
2018-10-18T01:37:02.935Z,63.90
2018-10-18T01:39:31.590Z,63.60
2018-10-18T01:42:00.281Z,63.00
2018-10-18T01:44:28.838Z,61.00
2018-10-18T01:46:57.470Z,62.43
2018-10-18T01:49:26.108Z,58.70
2018-10-18T01:51:54.762Z,59.97
2018-10-18T01:54:23.358Z,60.40
2018-10-18T01:56:51.951Z,58.73
2018-10-18T01:59:20.539Z,59.70
2018-10-18T02:01:49.202Z,59.30
2018-10-18T02:04:17.865Z,61.40
2018-10-18T02:06:46.455Z,62.23
2018-10-18T02:09:15.078Z,61.83
2018-10-18T02:11:43.722Z,59.47
2018-10-18T02:14:12.335Z,59.90
2018-10-18T02:16:40.989Z,59.83
2018-10-18T02:19:09.595Z,59.77
2018-10-18T02:21:38.210Z,61.10
2018-10-18T02:24:07.030Z,61.20
2018-10-18T02:26:35.558Z,59.57
2018-10-18T02:29:04.238Z,59.77
2018-10-18T02:31:32.891Z,57.00
2018-10-18T02:34:01.442Z,59.80
2018-10-18T02:36:30.107Z,65.50
2018-10-18T02:38:58.712Z,61.97
2018-10-18T02:41:27.369Z,59.30
2018-10-18T02:43:55.954Z,61.93
2018-10-18T02:46:25.394Z,65.80
2018-10-18T02:48:54.057Z,64.97
2018-10-18T02:51:22.663Z,66.20
2018-10-18T02:53:51.350Z,61.93
2018-10-18T02:56:19.982Z,62.30
2018-10-18T02:58:48.579Z,62.33
2018-10-18T03:01:17.181Z,63.70
2018-10-18T03:03:45.825Z,66.20
2018-10-18T03:06:14.595Z,63.97
2018-10-18T03:08:43.332Z,65.80
2018-10-18T03:11:12.010Z,64.30
2018-10-18T03:13:40.606Z,64.70
2018-10-18T03:16:09.282Z,64.10
2018-10-18T03:18:37.877Z,64.70
2018-10-18T03:21:06.510Z,65.10
2018-10-18T03:23:35.108Z,68.47
2018-10-18T03:26:03.715Z,65.77
2018-10-18T03:28:32.432Z,67.37
2018-10-18T03:31:01.097Z,71.70
2018-10-18T03:33:29.836Z,66.47
2018-10-18T03:35:58.843Z,70.57
2018-10-18T03:38:27.495Z,73.73
2018-10-18T03:40:56.266Z,74.27
2018-10-18T03:43:24.885Z,74.97
2018-10-18T03:45:53.520Z,75.10
2018-10-18T03:48:22.137Z,73.90
2018-10-18T03:50:50.782Z,72.40
2018-10-18T03:53:19.399Z,74.47
2018-10-18T03:55:48.089Z,80.50
2018-10-18T03:58:16.898Z,74.37
2018-10-18T04:00:45.606Z,74.00
2018-10-18T04:03:14.218Z,73.80
2018-10-18T04:05:42.824Z,74.87
2018-10-18T04:08:11.423Z,77.40
2018-10-18T04:10:40.086Z,77.37
2018-10-18T04:13:08.731Z,76.00
2018-10-18T04:15:37.326Z,77.00
2018-10-18T04:18:06.235Z,75.10
2018-10-18T04:20:34.678Z,77.93
2018-10-18T04:23:03.409Z,76.83
2018-10-18T04:25:32.104Z,75.70
2018-10-18T04:28:00.712Z,80.23
2018-10-18T04:30:29.320Z,78.40
2018-10-18T04:32:58.009Z,78.67
2018-10-18T04:35:26.636Z,74.80
2018-10-18T04:37:55.249Z,74.97
2018-10-18T04:40:23.893Z,80.97
2018-10-18T04:42:52.507Z,80.40
2018-10-18T04:45:21.137Z,82.37
2018-10-18T04:47:49.929Z,79.53
2018-10-18T04:50:18.375Z,81.73
2018-10-18T04:52:46.983Z,77.73
2018-10-18T04:55:15.656Z,82.37
2018-10-18T04:57:44.221Z,80.17
2018-10-18T05:00:12.885Z,85.40
2018-10-18T05:02:41.643Z,85.70
2018-10-18T05:05:21.217Z,87.70
2018-10-18T05:07:49.848Z,90.07
2018-10-18T05:10:18.451Z,86.70
2018-10-18T05:12:47.105Z,90.30
2018-10-18T05:15:17.221Z,89.70
2018-10-18T05:17:45.887Z,91.03
2018-10-18T05:20:14.597Z,88.07
2018-10-18T05:22:43.259Z,86.77
2018-10-18T05:25:11.972Z,93.47
2018-10-18T05:27:40.560Z,88.93
2018-10-18T05:30:09.548Z,89.97
2018-10-18T05:32:38.194Z,92.90
2018-10-18T05:35:07.083Z,92.90
2018-10-18T05:37:35.878Z,94.03
2018-10-18T05:40:04.853Z,91.17
2018-10-18T05:42:33.462Z,90.10
2018-10-18T05:45:02.154Z,92.40
2018-10-18T05:47:30.814Z,94.53
2018-10-18T05:49:59.466Z,90.53
2018-10-18T05:52:28.105Z,92.37
2018-10-18T05:54:56.794Z,94.93
2018-10-18T05:57:31.994Z,91.97
2018-10-18T06:00:00.660Z,94.43
2018-10-18T06:02:29.287Z,95.23
2018-10-18T06:04:58.025Z,97.17
2018-10-18T06:07:26.720Z,94.27
2018-10-18T06:12:29.238Z,89.93
2018-10-18T06:14:57.901Z,90.37
2018-10-18T06:17:26.570Z,87.07
2018-10-18T06:19:55.263Z,91.73
2018-10-18T06:22:24.336Z,92.87
2018-10-18T06:24:52.996Z,91.67
2018-10-18T06:27:21.702Z,89.80
2018-10-18T06:29:50.362Z,88.87
2018-10-18T06:32:19.024Z,90.97
2018-10-18T06:34:47.693Z,89.50
2018-10-18T06:37:16.359Z,89.10
2018-10-18T06:39:45.054Z,86.03
2018-10-18T06:42:13.719Z,88.70
2018-10-18T06:44:42.381Z,88.70
2018-10-18T06:47:11.346Z,83.87
2018-10-18T06:49:39.885Z,87.10
2018-10-18T06:52:08.466Z,88.80
2018-10-18T06:54:37.148Z,87.07
2018-10-18T06:57:06.742Z,91.90
2018-10-18T06:59:35.468Z,90.27
2018-10-18T07:02:04.367Z,90.60
2018-10-18T07:04:33.070Z,91.37
2018-10-18T07:07:02.245Z,86.10
2018-10-18T07:09:30.982Z,86.37
2018-10-18T07:11:59.842Z,87.20
2018-10-18T07:14:28.493Z,89.40
2018-10-18T07:16:57.223Z,88.00
2018-10-18T07:19:25.946Z,87.07
2018-10-18T07:21:54.732Z,84.37
2018-10-18T07:24:23.411Z,88.47
2018-10-18T07:26:52.218Z,85.20
2018-10-18T07:29:20.943Z,83.50
2018-10-18T07:31:49.644Z,87.67
2018-10-18T07:34:18.388Z,85.70
2018-10-18T07:36:47.224Z,84.90
2018-10-18T07:39:15.972Z,80.47
2018-10-18T07:41:45.025Z,84.93
2018-10-18T07:44:13.801Z,78.97
2018-10-18T07:46:42.576Z,83.47
2018-10-18T07:49:11.270Z,80.97
2018-10-18T07:51:39.983Z,83.73
2018-10-18T07:54:08.766Z,83.47
2018-10-18T07:56:37.461Z,80.60
2018-10-18T07:59:06.370Z,83.47
2018-10-18T08:01:35.071Z,81.73
2018-10-18T08:04:03.742Z,76.90
2018-10-18T08:06:32.534Z,78.77
2018-10-18T08:09:01.360Z,79.97
2018-10-18T08:11:30.136Z,81.80
2018-10-18T08:13:58.912Z,79.77
2018-10-18T08:16:27.702Z,79.50
2018-10-18T08:18:56.506Z,78.43
2018-10-18T08:21:25.279Z,78.37
2018-10-18T08:23:54.013Z,77.67
2018-10-18T08:26:22.873Z,78.70
2018-10-18T08:28:51.651Z,76.00
2018-10-18T08:31:20.611Z,75.87
2018-10-18T08:33:49.349Z,74.20
2018-10-18T08:36:18.194Z,72.23
2018-10-18T08:38:47.073Z,71.00
2018-10-18T08:41:16.486Z,69.90
2018-10-18T08:43:45.371Z,67.93
2018-10-18T08:46:14.178Z,70.90
2018-10-18T08:48:42.952Z,71.60
2018-10-18T08:51:11.740Z,70.77
2018-10-18T08:53:41.350Z,66.93
2018-10-18T08:56:10.227Z,70.67
2018-10-18T08:58:39.031Z,70.23
2018-10-18T09:01:07.789Z,70.10
2018-10-18T09:03:36.480Z,73.80
2018-10-18T09:06:05.666Z,72.03
2018-10-18T09:08:34.413Z,69.63
2018-10-18T09:11:03.232Z,68.17
2018-10-18T09:13:31.990Z,68.63
2018-10-18T09:16:00.848Z,70.97
2018-10-18T09:18:29.550Z,70.17
2018-10-18T09:20:58.266Z,71.47
2018-10-18T09:23:26.982Z,67.80
2018-10-18T09:25:55.799Z,64.40
2018-10-18T09:28:24.576Z,63.53
2018-10-18T09:30:53.332Z,68.90
2018-10-18T09:33:22.031Z,66.70
2018-10-18T09:35:50.731Z,68.70
2018-10-18T09:38:19.519Z,66.87
2018-10-18T09:40:48.287Z,64.90
2018-10-18T09:43:17.231Z,66.00
2018-10-18T09:45:45.976Z,68.70
2018-10-18T09:48:14.839Z,62.67
2018-10-18T09:50:43.590Z,67.10
2018-10-18T09:53:12.283Z,63.50
2018-10-18T09:55:41.086Z,68.23
2018-10-18T09:58:09.844Z,68.60
2018-10-18T10:00:43.549Z,65.83
2018-10-18T10:03:13.632Z,66.77
2018-10-18T10:05:42.419Z,60.80
2018-10-18T10:08:11.516Z,67.77
2018-10-18T10:10:40.300Z,70.17
2018-10-18T10:13:09.545Z,63.43
2018-10-18T10:15:38.275Z,60.07
2018-10-18T10:18:07.040Z,63.50
2018-10-18T10:20:35.900Z,62.73
2018-10-18T10:23:04.664Z,65.43
2018-10-18T10:25:33.428Z,64.27
2018-10-18T10:28:02.317Z,62.03
2018-10-18T10:30:31.154Z,64.30
2018-10-18T10:32:59.841Z,63.90
2018-10-18T10:35:28.727Z,65.60
2018-10-18T10:37:57.573Z,67.57
2018-10-18T10:40:26.348Z,63.60
2018-10-18T10:42:55.212Z,63.60
2018-10-18T10:45:24.234Z,67.50
2018-10-18T10:47:53.275Z,65.80
2018-10-18T10:50:22.090Z,65.07
2018-10-18T10:52:50.876Z,64.67
2018-10-18T10:55:19.593Z,60.63
2018-10-18T10:57:48.306Z,66.20
2018-10-18T11:00:26.890Z,63.70
2018-10-18T11:02:55.643Z,62.37
2018-10-18T11:05:24.364Z,63.17
2018-10-18T11:07:53.077Z,63.40
2018-10-18T11:10:21.754Z,59.00
2018-10-18T11:12:50.489Z,62.30
2018-10-18T11:15:19.336Z,60.83
2018-10-18T11:17:47.951Z,61.33
2018-10-18T11:20:16.697Z,58.23
2018-10-18T11:22:45.436Z,62.00
2018-10-18T11:25:14.185Z,61.00
2018-10-18T11:27:42.945Z,59.60
2018-10-18T11:30:11.741Z,60.77
2018-10-18T11:32:40.462Z,61.43
2018-10-18T11:35:09.164Z,61.37
2018-10-18T11:37:37.935Z,62.20
2018-10-18T11:40:07.254Z,58.57
2018-10-18T11:42:36.089Z,57.13
2018-10-18T11:45:04.747Z,54.07
2018-10-18T11:47:33.575Z,58.67
2018-10-18T11:50:02.304Z,58.00
2018-10-18T11:52:31.010Z,57.63
2018-10-18T11:54:59.695Z,58.90
2018-10-18T11:57:28.401Z,57.80
2018-10-18T11:59:57.110Z,59.17
2018-10-18T12:02:25.871Z,54.77
2018-10-18T12:04:54.660Z,57.50
2018-10-18T12:07:23.419Z,54.37
2018-10-18T12:09:52.142Z,58.53
2018-10-18T12:12:20.820Z,59.63
2018-10-18T12:14:49.549Z,55.17
2018-10-18T12:17:18.260Z,57.37
2018-10-18T12:19:46.967Z,57.70
2018-10-18T12:22:15.688Z,56.30
2018-10-18T12:24:44.385Z,54.70
2018-10-18T12:27:13.188Z,57.20
2018-10-18T12:29:41.896Z,52.10
2018-10-18T12:32:10.679Z,57.43
2018-10-18T12:34:39.439Z,57.77
2018-10-18T12:37:08.137Z,54.90
2018-10-18T12:39:36.887Z,56.27
2018-10-18T12:42:05.639Z,54.13
2018-10-18T12:44:40.018Z,50.97
2018-10-18T12:47:10.495Z,52.10
2018-10-18T12:49:40.498Z,57.53
2018-10-18T12:52:10.789Z,53.27
2018-10-18T12:54:39.809Z,54.33
2018-10-18T12:57:10.098Z,56.60
2018-10-18T12:59:38.788Z,51.33
2018-10-18T13:02:07.766Z,54.30
2018-10-18T13:04:36.765Z,51.63
2018-10-18T13:07:05.659Z,51.50
2018-10-18T13:09:34.473Z,51.77
2018-10-18T13:12:03.193Z,53.67
2018-10-18T13:14:31.922Z,54.90
2018-10-18T13:17:00.622Z,56.70
2018-10-18T13:19:29.300Z,53.10
2018-10-18T13:21:58.014Z,51.70
2018-10-18T13:24:26.676Z,54.90
2018-10-18T13:26:55.384Z,51.80
2018-10-18T13:29:24.077Z,52.93
2018-10-18T13:31:52.729Z,51.40
2018-10-18T13:34:21.387Z,52.07
2018-10-18T13:36:50.030Z,51.97
2018-10-18T13:39:18.711Z,53.80
2018-10-18T13:41:47.378Z,52.10
2018-10-18T13:44:16.054Z,49.23
2018-10-18T13:46:44.764Z,49.53
2018-10-18T13:49:13.419Z,49.33
2018-10-18T13:51:42.277Z,50.77
2018-10-18T13:54:11.056Z,47.07
2018-10-18T13:56:39.623Z,52.23
2018-10-18T13:59:18.144Z,52.47
2018-10-18T14:01:46.702Z,51.53
2018-10-18T14:04:15.383Z,46.70
2018-10-18T14:06:44.034Z,47.37
2018-10-18T14:09:12.679Z,50.40
2018-10-18T14:11:41.439Z,51.70
2018-10-18T14:14:10.200Z,48.10
2018-10-18T14:16:38.836Z,44.97
2018-10-18T14:19:07.488Z,48.73
2018-10-18T14:21:36.254Z,48.37
2018-10-18T14:24:05.688Z,47.17
2018-10-18T14:26:34.340Z,44.40
2018-10-18T14:29:03.044Z,47.27
2018-10-18T14:31:31.706Z,44.00
2018-10-18T14:34:00.342Z,43.40
2018-10-18T14:36:29.084Z,40.80
2018-10-18T14:38:57.916Z,40.07
2018-10-18T14:41:31.987Z,41.60
2018-10-18T14:44:00.683Z,39.47
2018-10-18T14:46:29.350Z,39.40
2018-10-18T14:48:58.010Z,41.00
2018-10-18T14:51:26.683Z,43.90
2018-10-18T14:53:55.366Z,44.83
2018-10-18T14:56:24.153Z,42.60
2018-10-18T14:58:52.899Z,44.20
2018-10-18T15:01:21.595Z,44.87
2018-10-18T15:03:50.428Z,42.27
2018-10-18T15:06:19.275Z,43.57
2018-10-18T15:08:47.967Z,40.17
2018-10-18T15:11:16.661Z,44.80
2018-10-18T15:13:45.379Z,43.27
2018-10-18T15:16:14.148Z,42.13
2018-10-18T15:18:42.890Z,44.10
2018-10-18T15:21:11.595Z,45.57
2018-10-18T15:23:40.263Z,43.80
2018-10-18T15:26:09.098Z,44.00
2018-10-18T15:28:37.683Z,44.50
2018-10-18T15:31:06.407Z,43.27
2018-10-18T15:33:35.112Z,43.00
2018-10-18T15:36:03.937Z,47.47
2018-10-18T15:38:32.668Z,42.17
2018-10-18T15:41:01.333Z,41.92
2018-10-18T15:43:30.064Z,43.97
2018-10-18T15:45:58.735Z,45.30
2018-10-18T15:48:27.416Z,51.70
2018-10-18T15:50:56.122Z,46.97
2018-10-18T15:53:24.754Z,49.40
2018-10-18T15:55:53.464Z,51.17
2018-10-18T15:58:22.120Z,51.63
2018-10-18T16:00:50.793Z,55.23
2018-10-18T16:03:19.587Z,54.80
2018-10-18T16:05:48.247Z,59.40
2018-10-18T16:08:16.991Z,60.43
2018-10-18T16:10:45.715Z,58.57
2018-10-18T16:13:14.486Z,59.20
2018-10-18T16:15:43.229Z,62.30
2018-10-18T16:18:11.945Z,59.97
2018-10-18T16:20:40.735Z,63.07
2018-10-18T16:23:09.471Z,60.50
2018-10-18T16:25:38.206Z,58.37
2018-10-18T16:28:06.971Z,65.07
2018-10-18T16:30:35.604Z,63.20
2018-10-18T16:33:04.398Z,65.77
2018-10-18T16:35:33.073Z,68.60
2018-10-18T16:38:01.765Z,70.70
2018-10-18T16:40:30.522Z,72.30
2018-10-18T16:43:04.724Z,67.80
2018-10-18T16:45:33.452Z,71.67
2018-10-18T16:48:02.166Z,69.70
2018-10-18T16:50:30.859Z,67.97
2018-10-18T16:52:59.583Z,70.80
2018-10-18T16:55:28.235Z,73.30
2018-10-18T16:57:56.975Z,68.33
2018-10-18T17:00:25.635Z,73.10
2018-10-18T17:02:54.360Z,72.80
2018-10-18T17:05:23.098Z,68.53
2018-10-18T17:07:51.850Z,69.77
2018-10-18T17:10:20.630Z,70.80
2018-10-18T17:12:49.213Z,74.90
2018-10-18T17:15:18.198Z,68.93
2018-10-18T17:17:47.818Z,73.50
2018-10-18T17:20:16.712Z,73.93
2018-10-18T17:22:45.308Z,71.60
2018-10-18T17:25:14.006Z,71.70
2018-10-18T17:27:42.717Z,74.97
2018-10-18T17:30:11.376Z,72.03
2018-10-18T17:32:40.160Z,73.77
2018-10-18T17:35:08.845Z,76.93
2018-10-18T17:37:37.574Z,75.43
2018-10-18T17:40:06.849Z,75.97
2018-10-18T17:42:35.465Z,72.90
2018-10-18T17:45:04.175Z,72.50
2018-10-18T17:47:32.859Z,70.60
2018-10-18T17:50:01.569Z,73.07
2018-10-18T17:52:30.216Z,75.30
2018-10-18T17:54:58.941Z,72.10
2018-10-18T17:57:27.614Z,70.40
2018-10-18T17:59:56.417Z,72.50
2018-10-18T18:02:25.091Z,73.33
2018-10-18T18:04:53.791Z,79.97
2018-10-18T18:07:22.470Z,71.97
2018-10-18T18:09:51.107Z,71.50
2018-10-18T18:12:19.801Z,68.10
2018-10-18T18:14:48.528Z,66.23
2018-10-18T18:17:17.238Z,65.53
2018-10-18T18:19:46.006Z,68.00
2018-10-18T18:22:14.667Z,65.10
2018-10-18T18:24:43.420Z,63.13
2018-10-18T18:27:12.077Z,59.90
2018-10-18T18:29:40.734Z,59.23
2018-10-18T18:32:09.524Z,58.77
2018-10-18T18:34:38.316Z,60.37
2018-10-18T18:37:07.076Z,58.37
2018-10-18T18:39:35.817Z,59.37
2018-10-18T18:42:04.586Z,58.90
2018-10-18T18:44:33.320Z,58.50
2018-10-18T18:47:02.046Z,60.30
2018-10-18T18:49:30.805Z,59.03
2018-10-18T18:51:59.599Z,60.63
2018-10-18T18:54:28.338Z,59.50
2018-10-18T18:56:57.086Z,58.47
2018-10-18T18:59:25.775Z,58.87
2018-10-18T19:01:54.475Z,58.53
2018-10-18T19:04:23.174Z,55.87
2018-10-18T19:06:51.818Z,59.70
2018-10-18T19:09:20.439Z,58.13
2018-10-18T19:11:49.303Z,61.03
2018-10-18T19:14:17.998Z,64.60
2018-10-18T19:16:46.740Z,65.20
2018-10-18T19:19:15.516Z,66.20
2018-10-18T19:21:44.289Z,63.37
2018-10-18T19:24:13.197Z,67.60
2018-10-18T19:26:41.944Z,63.40
2018-10-18T19:29:10.696Z,63.90
2018-10-18T19:31:39.527Z,64.93
2018-10-18T19:34:08.497Z,68.30
2018-10-18T19:36:37.314Z,65.00
2018-10-18T19:39:07.942Z,63.30
2018-10-18T19:41:36.684Z,65.77
2018-10-18T19:44:05.732Z,67.23
2018-10-18T19:46:34.541Z,64.60
2018-10-18T19:49:03.343Z,64.03
2018-10-18T19:51:32.202Z,64.97
2018-10-18T19:54:00.908Z,63.90
2018-10-18T19:56:29.542Z,64.67
2018-10-18T19:58:58.187Z,70.03
2018-10-18T20:01:26.910Z,65.17
2018-10-18T20:03:55.635Z,67.37
2018-10-18T20:06:24.361Z,65.63
2018-10-18T20:08:53.093Z,69.60
2018-10-18T20:11:21.847Z,70.13
2018-10-18T20:13:50.589Z,69.07
2018-10-18T20:16:19.321Z,68.43
2018-10-18T20:18:48.290Z,66.30
2018-10-18T20:21:17.084Z,69.43
2018-10-18T20:23:45.916Z,68.30
2018-10-18T20:26:14.840Z,70.07
2018-10-18T20:28:43.360Z,69.10
2018-10-18T20:31:12.174Z,69.57
2018-10-18T20:33:40.824Z,66.70
2018-10-18T20:36:09.610Z,69.40
2018-10-18T20:38:38.316Z,68.10
2018-10-18T20:41:07.173Z,66.00
2018-10-18T20:43:35.826Z,75.00
2018-10-18T20:46:04.645Z,75.40
2018-10-18T20:48:34.004Z,69.13
2018-10-18T20:51:03.521Z,73.77
2018-10-18T20:53:32.483Z,72.70
2018-10-18T20:56:02.110Z,74.47
2018-10-18T20:58:31.930Z,77.87
2018-10-18T21:01:00.830Z,84.33
2018-10-18T21:03:29.525Z,84.17
2018-10-18T21:05:59.071Z,79.90
2018-10-18T21:08:27.676Z,86.77
2018-10-18T21:10:56.444Z,87.90
2018-10-18T21:13:25.117Z,86.40
2018-10-18T21:15:53.776Z,87.37
2018-10-18T21:18:22.566Z,83.20
2018-10-18T21:20:51.325Z,84.80
2018-10-18T21:23:20.041Z,87.20
2018-10-18T21:25:48.766Z,83.50
2018-10-18T21:28:17.475Z,82.10
2018-10-18T21:30:46.198Z,84.13
2018-10-18T21:33:14.997Z,83.90
2018-10-18T21:35:43.595Z,84.63
2018-10-18T21:38:12.251Z,88.97
2018-10-18T21:40:40.935Z,82.33
2018-10-18T21:43:09.577Z,83.47
2018-10-18T21:45:38.326Z,84.30
2018-10-18T21:48:07.154Z,87.40
2018-10-18T21:50:35.785Z,85.03
2018-10-18T21:53:04.505Z,84.80
2018-10-18T21:55:33.147Z,83.80
2018-10-18T21:58:01.884Z,82.37
2018-10-18T22:00:35.109Z,87.07
2018-10-18T22:03:03.901Z,85.63
2018-10-18T22:05:32.506Z,88.40
2018-10-18T22:08:01.250Z,84.20
2018-10-18T22:10:29.894Z,84.43
2018-10-18T22:12:58.555Z,82.70
2018-10-18T22:15:27.277Z,83.73
2018-10-18T22:17:55.887Z,87.43
2018-10-18T22:20:24.743Z,82.77
2018-10-18T22:22:53.426Z,83.90
2018-10-18T22:25:22.110Z,87.20
2018-10-18T22:27:50.819Z,89.17
2018-10-18T22:30:19.503Z,85.90
2018-10-18T22:32:48.175Z,88.60
2018-10-18T22:35:16.923Z,88.53
2018-10-18T22:37:45.540Z,85.03
2018-10-18T22:40:14.263Z,84.67
2018-10-18T22:42:42.957Z,83.50
2018-10-18T22:45:11.657Z,84.50
2018-10-18T22:47:40.235Z,84.63
2018-10-18T22:50:08.896Z,89.27
2018-10-18T22:52:37.573Z,85.50
2018-10-18T22:55:06.643Z,85.33
2018-10-18T22:57:35.274Z,89.37
2018-10-18T23:00:04.056Z,89.73
2018-10-18T23:02:32.697Z,90.33
2018-10-18T23:05:01.447Z,88.77
2018-10-18T23:07:30.134Z,87.17
2018-10-18T23:09:58.867Z,89.33
2018-10-18T23:12:27.663Z,85.80
2018-10-18T23:14:56.387Z,90.10
2018-10-18T23:17:25.027Z,85.30
2018-10-18T23:19:53.682Z,85.53
2018-10-18T23:22:22.347Z,92.13
2018-10-18T23:24:51.085Z,83.40
2018-10-18T23:27:18.819Z,83.80
2018-10-18T23:29:47.578Z,84.20
2018-10-18T23:32:16.220Z,86.27
2018-10-18T23:34:44.910Z,80.30
2018-10-18T23:37:13.590Z,82.10
2018-10-18T23:39:42.300Z,86.37
2018-10-18T23:42:11.018Z,82.50
2018-10-18T23:44:39.679Z,81.40
2018-10-18T23:47:08.372Z,82.57
2018-10-18T23:49:37.000Z,83.03
2018-10-18T23:52:05.812Z,82.10
2018-10-18T23:54:34.668Z,83.30
2018-10-18T23:57:03.365Z,81.30
2018-10-18T23:59:32.178Z,82.70
